createdAt,value
2023-04-01T00:06:30.790Z,3.40
2023-04-01T00:16:33.845Z,3.40
2023-04-01T00:26:38.381Z,3.20
2023-04-01T00:36:41.414Z,2.67
2023-04-01T00:46:45.750Z,3.85
2023-04-01T00:56:56.773Z,2.87
2023-04-01T01:07:13.365Z,4.13
2023-04-01T01:17:24.722Z,4.55
2023-04-01T01:27:31.425Z,5.18
2023-04-01T01:37:36.154Z,6.40
2023-04-01T01:47:40.764Z,10.40
2023-04-01T01:57:47.087Z,10.38
2023-04-01T02:07:59.987Z,10.00
2023-04-01T02:18:05.118Z,13.35
2023-04-01T02:28:10.996Z,15.13
2023-04-01T02:38:17.401Z,16.42
2023-04-01T02:48:20.607Z,18.70
2023-04-01T02:58:25.849Z,18.30
2023-04-01T03:08:28.860Z,18.57
2023-04-01T03:18:33.234Z,17.15
2023-04-01T03:28:36.489Z,17.40
2023-04-01T03:38:42.152Z,15.32
2023-04-01T03:48:45.143Z,15.55
2023-04-01T03:58:49.604Z,12.25
2023-04-01T04:08:53.255Z,9.02
2023-04-01T04:18:58.525Z,10.13
2023-04-01T04:29:02.146Z,9.07
2023-04-01T04:39:06.509Z,8.05
2023-04-01T04:49:11.721Z,6.68
2023-04-01T04:59:16.248Z,6.40
2023-04-01T05:09:26.180Z,6.57
2023-04-01T05:19:30.733Z,6.13
2023-04-01T05:29:34.624Z,5.57
2023-04-01T05:39:43.470Z,5.78
2023-04-01T05:49:46.616Z,6.93
2023-04-01T05:59:51.119Z,8.23
2023-04-01T06:09:54.273Z,8.23
2023-04-01T06:20:07.039Z,10.00
2023-04-01T06:30:27.892Z,9.82
2023-04-01T06:40:52.698Z,12.35
2023-04-01T06:51:06.551Z,15.07
2023-04-01T07:01:48.160Z,18.27
2023-04-01T07:11:54.073Z,19.73
2023-04-01T07:22:31.874Z,20.98
2023-04-01T07:32:51.703Z,21.75
2023-04-01T07:43:26.002Z,20.95
2023-04-01T07:53:48.094Z,20.87
2023-04-01T08:04:13.014Z,21.75
2023-04-01T13:48:17.366Z,14.15
2023-04-01T13:58:44.979Z,14.13
2023-04-01T14:20:03.947Z,9.98
2023-04-01T14:30:28.236Z,9.50
2023-04-01T14:40:43.086Z,12.63
2023-04-01T15:11:31.761Z,13.02
2023-04-01T15:21:53.204Z,15.15
2023-04-01T15:32:04.696Z,16.23
2023-04-01T15:42:29.420Z,16.83
2023-04-01T15:52:45.434Z,16.30
2023-04-01T16:02:52.171Z,14.32
2023-04-01T16:13:21.905Z,15.10
2023-04-01T16:23:37.247Z,15.77
2023-04-01T16:33:50.117Z,14.98
2023-04-01T16:43:57.808Z,17.58
2023-04-01T16:54:08.824Z,16.33
2023-04-01T17:04:20.839Z,18.23
2023-04-01T17:14:31.887Z,16.92
2023-04-01T17:24:47.835Z,13.07
2023-04-01T17:35:05.509Z,10.48
2023-04-01T17:45:13.869Z,10.85
2023-04-01T17:55:47.074Z,8.05
2023-04-01T18:06:03.077Z,7.93
2023-04-01T18:16:36.337Z,7.47
2023-04-01T18:26:44.274Z,8.65
2023-04-01T18:36:53.701Z,8.48
2023-04-01T18:47:05.738Z,7.22
2023-04-01T18:57:15.174Z,8.10
2023-04-01T19:07:44.438Z,10.35
2023-04-01T19:18:00.777Z,9.70
2023-04-01T19:28:18.458Z,12.10
2023-04-01T19:38:29.206Z,10.52
2023-04-01T19:48:45.804Z,9.07
2023-04-01T19:58:56.809Z,10.15
2023-04-01T20:09:28.938Z,9.38
2023-04-01T20:19:40.213Z,11.20
2023-04-01T20:29:57.796Z,12.65
2023-04-01T20:40:33.338Z,12.90
2023-04-01T20:50:47.384Z,11.38
2023-04-01T21:01:04.978Z,13.50
2023-04-01T21:11:19.382Z,12.30
2023-04-01T21:21:37.646Z,12.17
2023-04-01T21:31:55.072Z,8.80
2023-04-01T21:42:16.072Z,11.75
2023-04-01T21:52:40.491Z,12.93
2023-04-01T22:03:20.157Z,12.73
2023-04-01T22:13:39.545Z,13.38
2023-04-01T22:23:48.677Z,14.50
2023-04-01T22:34:02.225Z,18.25
2023-04-01T22:44:05.589Z,21.05
2023-04-01T22:54:17.609Z,19.05
2023-04-01T23:04:25.896Z,20.20
2023-04-01T23:14:49.692Z,15.13
2023-04-01T23:24:57.679Z,15.80
2023-04-01T23:35:02.496Z,14.15
2023-04-01T23:45:13.709Z,13.85
2023-04-01T23:55:21.170Z,13.23
